createdAt,value
2023-05-10T00:02:24.344Z,9.10
2023-05-10T00:07:27.477Z,12.00
2023-05-10T00:12:30.272Z,11.10
2023-05-10T00:17:33.100Z,8.40
2023-05-10T00:22:37.922Z,7.60
2023-05-10T00:27:40.640Z,7.10
2023-05-10T00:32:44.647Z,9.30
2023-05-10T00:37:47.471Z,8.30
2023-05-10T00:42:50.731Z,10.10
2023-05-10T00:47:56.249Z,9.90
2023-05-10T00:53:00.664Z,10.30
2023-05-10T00:58:03.463Z,11.20
2023-05-10T01:03:06.634Z,8.70
2023-05-10T01:08:09.899Z,8.50
2023-05-10T01:13:13.935Z,7.50
2023-05-10T01:18:21.240Z,10.70
2023-05-10T01:23:44.884Z,11.50
2023-05-10T01:29:02.751Z,8.70
2023-05-10T01:34:16.794Z,9.50
2023-05-10T01:39:29.649Z,8.60
2023-05-10T01:44:36.819Z,10.30
2023-05-10T01:49:47.848Z,10.90
2023-05-10T01:54:57.148Z,9.30
2023-05-10T02:00:02.262Z,11.40
2023-05-10T02:05:07.297Z,9.60
2023-05-10T02:10:12.837Z,9.30
2023-05-10T02:15:22.344Z,7.00
2023-05-10T02:20:26.699Z,9.90
2023-05-10T02:25:31.361Z,11.00
2023-05-10T02:30:36.227Z,9.20
2023-05-10T02:35:39.383Z,9.00
2023-05-10T02:40:43.639Z,11.00
2023-05-10T02:45:49.096Z,10.00
2023-05-10T02:50:53.534Z,9.50
2023-05-10T02:56:01.513Z,9.70
2023-05-10T03:01:04.640Z,10.20
2023-05-10T03:06:07.472Z,11.30
2023-05-10T03:11:34.900Z,10.90
2023-05-10T03:16:48.306Z,9.10
2023-05-10T03:21:53.756Z,9.20
2023-05-10T03:27:00.041Z,16.00
2023-05-10T03:32:03.283Z,9.60
2023-05-10T03:37:06.032Z,9.10
2023-05-10T03:42:08.897Z,9.10
2023-05-10T03:47:12.117Z,10.60
2023-05-10T03:52:15.429Z,9.80
2023-05-10T03:57:18.265Z,10.10
2023-05-10T04:02:21.109Z,10.90
2023-05-10T04:07:23.937Z,8.70
2023-05-10T04:12:26.749Z,10.60
2023-05-10T04:17:31.753Z,8.70
2023-05-10T04:22:34.631Z,11.70
2023-05-10T04:27:38.374Z,9.70
2023-05-10T04:32:41.283Z,9.30
2023-05-10T04:37:44.566Z,8.50
2023-05-10T04:42:47.631Z,7.00
2023-05-10T04:47:50.426Z,7.40
2023-05-10T04:52:53.414Z,8.50
2023-05-10T04:57:58.338Z,8.70
2023-05-10T05:03:01.240Z,7.00
2023-05-10T05:08:04.782Z,9.50
2023-05-10T05:13:07.785Z,8.50
2023-05-10T05:18:10.688Z,7.10
2023-05-10T05:23:13.750Z,7.70
2023-05-10T05:28:17.189Z,8.00
2023-05-10T05:33:20.485Z,7.30
2023-05-10T05:38:23.393Z,7.80
2023-05-10T05:43:26.320Z,13.40
2023-05-10T05:48:31.204Z,10.80
2023-05-10T05:53:34.924Z,9.30
2023-05-10T05:58:38.895Z,7.30
2023-05-10T06:03:42.612Z,7.10
2023-05-10T06:08:45.781Z,7.00
2023-05-10T06:14:01.189Z,6.20
2023-05-10T06:19:05.125Z,6.40
2023-05-10T06:24:08.564Z,8.70
2023-05-10T06:29:12.584Z,6.30
2023-05-10T06:34:15.478Z,8.50
2023-05-10T06:39:18.844Z,8.50
2023-05-10T06:44:22.549Z,6.10
2023-05-10T06:49:25.402Z,9.10
2023-05-10T06:54:28.521Z,8.40
2023-05-10T06:59:31.550Z,6.40
2023-05-10T07:04:35.402Z,7.70
2023-05-10T07:09:38.720Z,4.60
2023-05-10T07:14:43.637Z,9.20
2023-05-10T07:19:46.464Z,6.40
2023-05-10T07:24:49.585Z,27.90
2023-05-10T07:34:57.468Z,5.40
2023-05-10T07:40:00.543Z,5.50
2023-05-10T07:45:03.650Z,5.10
2023-05-10T07:50:07.418Z,10.50
2023-05-10T07:55:11.874Z,8.10
2023-05-10T08:00:19.160Z,78.50
2023-05-10T08:05:22.349Z,19.20
2023-05-10T08:10:25.640Z,11.70
2023-05-10T08:15:28.432Z,11.20
2023-05-10T08:20:33.396Z,5.90
2023-05-10T08:25:36.470Z,10.80
2023-05-10T08:30:46.787Z,9.50
2023-05-10T08:35:50.061Z,6.60
2023-05-10T08:40:57.833Z,17.00
2023-05-10T08:46:06.692Z,6.20
2023-05-10T08:51:13.917Z,7.20
2023-05-10T08:56:18.719Z,10.00
2023-05-10T09:06:25.832Z,4.70
2023-05-10T09:11:30.216Z,5.80
2023-05-10T09:16:33.140Z,6.80
2023-05-10T09:21:39.361Z,6.70
2023-05-10T09:26:53.512Z,5.80
2023-05-10T09:31:57.796Z,4.50
2023-05-10T09:37:03.878Z,15.20
2023-05-10T09:42:11.434Z,7.60
2023-05-10T09:47:19.485Z,10.70
2023-05-10T09:52:47.553Z,4.10
2023-05-10T09:57:59.744Z,14.90
2023-05-10T10:03:09.921Z,5.20
2023-05-10T10:08:16.469Z,7.60
2023-05-10T10:13:20.283Z,10.30
2023-05-10T10:18:28.145Z,6.60
2023-05-10T10:23:31.583Z,8.10
2023-05-10T10:29:01.490Z,8.40
2023-05-10T10:34:11.239Z,7.00
2023-05-10T10:39:25.096Z,9.30
2023-05-10T10:44:50.561Z,4.60
2023-05-10T10:50:05.274Z,9.40
2023-05-10T10:55:20.631Z,8.60
2023-05-10T11:00:38.087Z,4.60
2023-05-10T11:05:55.250Z,4.90
2023-05-10T11:11:12.076Z,6.30
2023-05-10T11:16:24.867Z,4.90
2023-05-10T11:21:28.454Z,8.00
2023-05-10T11:26:33.900Z,4.30
2023-05-10T11:31:43.510Z,7.20
2023-05-10T11:36:53.312Z,3.50
2023-05-10T11:41:58.212Z,5.10
2023-05-10T11:47:03.203Z,4.80
2023-05-10T11:52:21.457Z,6.60
2023-05-10T11:57:28.556Z,6.50
2023-05-10T12:02:37.616Z,7.10
2023-05-10T12:12:53.711Z,9.70
2023-05-10T12:17:58.010Z,9.60
2023-05-10T12:23:04.712Z,4.20
2023-05-10T12:28:11.674Z,5.40
2023-05-10T12:33:17.650Z,7.00
2023-05-10T12:43:36.390Z,8.90
2023-05-10T12:48:43.892Z,3.70
2023-05-10T12:53:49.692Z,5.90
2023-05-10T12:58:53.106Z,5.20
2023-05-10T13:03:56.701Z,5.60
2023-05-10T13:09:01.320Z,4.70
2023-05-10T13:14:05.929Z,6.70
2023-05-10T13:19:08.944Z,7.50
2023-05-10T13:24:15.054Z,7.60
2023-05-10T13:29:19.199Z,3.50
2023-05-10T13:34:22.134Z,4.40
2023-05-10T13:39:25.420Z,8.90
2023-05-10T13:44:28.366Z,5.30
2023-05-10T13:49:32.637Z,5.70
2023-05-10T13:54:35.557Z,6.90
2023-05-10T13:59:38.860Z,5.00
2023-05-10T14:04:42.092Z,3.50
2023-05-10T14:09:44.895Z,6.10
2023-05-10T14:14:47.752Z,6.90
2023-05-10T14:19:50.682Z,6.60
2023-05-10T14:24:56.179Z,6.50
2023-05-10T14:30:00.474Z,5.50
2023-05-10T14:35:12.207Z,5.90
2023-05-10T14:45:25.073Z,7.10
2023-05-10T14:50:36.435Z,4.40
2023-05-10T14:55:42.328Z,5.50
2023-05-10T15:00:45.217Z,3.80
2023-05-10T15:05:48.809Z,7.10
2023-05-10T15:10:52.440Z,4.70
2023-05-10T15:15:56.008Z,4.90
2023-05-10T15:20:58.957Z,10.60
2023-05-10T15:26:04.238Z,3.90
2023-05-10T15:31:07.234Z,4.90
2023-05-10T15:36:10.093Z,7.00
2023-05-10T15:41:13.430Z,6.20
2023-05-10T15:46:16.274Z,5.20
2023-05-10T15:51:21.039Z,3.70
2023-05-10T15:56:25.154Z,5.70
2023-05-10T16:01:29.316Z,6.50
2023-05-10T16:06:35.771Z,4.90
2023-05-10T16:11:38.799Z,14.60
2023-05-10T16:16:41.967Z,5.80
2023-05-10T16:21:44.891Z,4.50
2023-05-10T16:26:48.656Z,3.80
2023-05-10T16:31:52.575Z,4.90
2023-05-10T16:36:55.410Z,11.80
2023-05-10T16:41:59.199Z,6.80
2023-05-10T16:47:04.223Z,2.90
2023-05-10T16:52:07.139Z,9.50
2023-05-10T16:57:09.966Z,3.50
2023-05-10T17:02:14.039Z,5.60
2023-05-10T17:07:19.095Z,4.90
2023-05-10T17:12:28.644Z,6.60
2023-05-10T17:17:33.546Z,6.20
2023-05-10T17:22:36.446Z,5.00
2023-05-10T17:27:39.677Z,5.60
2023-05-10T17:32:43.878Z,5.20
2023-05-10T17:43:16.247Z,5.40
2023-05-10T17:48:19.270Z,5.00
2023-05-10T17:53:22.120Z,5.60
2023-05-10T17:58:25.615Z,5.80
2023-05-10T18:03:29.809Z,8.30
2023-05-10T18:08:35.778Z,11.10
2023-05-10T18:13:42.554Z,7.00
2023-05-10T18:18:45.699Z,5.50
2023-05-10T18:23:49.117Z,5.80
2023-05-10T18:28:52.043Z,7.10
2023-05-10T18:33:54.994Z,7.00
2023-05-10T18:38:58.357Z,5.60
2023-05-10T18:44:01.770Z,8.00
2023-05-10T18:49:05.633Z,7.50
2023-05-10T18:54:08.577Z,8.20
2023-05-10T18:59:12.881Z,9.80
2023-05-10T19:04:15.952Z,14.00
2023-05-10T19:09:20.259Z,12.20
2023-05-10T19:14:25.166Z,10.20
2023-05-10T19:19:29.000Z,8.90
2023-05-10T19:24:36.199Z,7.60
2023-05-10T19:29:40.386Z,8.10
2023-05-10T19:34:44.801Z,10.00
2023-05-10T19:39:47.773Z,7.40
2023-05-10T19:44:52.082Z,14.00
2023-05-10T19:49:55.212Z,12.80
2023-05-10T19:54:58.318Z,15.50
2023-05-10T20:00:02.546Z,14.60
2023-05-10T20:05:05.770Z,11.50
2023-05-10T20:10:10.175Z,12.50
2023-05-10T20:15:14.219Z,9.60
2023-05-10T20:20:17.585Z,16.30
2023-05-10T20:25:22.223Z,18.50
2023-05-10T20:30:25.184Z,46.00
2023-05-10T20:35:27.983Z,31.60
2023-05-10T20:40:31.901Z,25.20
2023-05-10T20:45:37.485Z,26.10
2023-05-10T20:50:43.292Z,55.60
2023-05-10T20:55:46.077Z,57.60
2023-05-10T21:00:49.282Z,46.40
2023-05-10T21:05:52.047Z,43.80
2023-05-10T21:10:54.885Z,29.90
2023-05-10T21:15:57.755Z,19.10
2023-05-10T21:21:00.746Z,17.90
2023-05-10T21:26:04.351Z,16.10
2023-05-10T21:31:08.548Z,14.20
2023-05-10T21:36:11.779Z,12.50
2023-05-10T21:41:14.610Z,14.70
2023-05-10T21:46:17.632Z,23.70
2023-05-10T21:51:21.922Z,25.00
2023-05-10T21:56:24.721Z,17.80
2023-05-10T22:01:27.722Z,14.10
2023-05-10T22:06:31.103Z,15.20
2023-05-10T22:11:34.452Z,10.60
2023-05-10T22:16:37.342Z,8.70
2023-05-10T22:21:40.225Z,10.00
2023-05-10T22:26:43.031Z,8.00
2023-05-10T22:31:45.988Z,13.30
2023-05-10T22:36:50.639Z,8.50
2023-05-10T22:41:53.463Z,7.40
2023-05-10T22:46:56.481Z,9.60
2023-05-10T22:51:59.412Z,7.20
2023-05-10T22:57:02.294Z,7.20
2023-05-10T23:02:05.282Z,8.70
2023-05-10T23:07:08.221Z,6.40
2023-05-10T23:12:11.137Z,7.40
2023-05-10T23:17:13.969Z,8.40
2023-05-10T23:22:17.133Z,8.90
2023-05-10T23:27:19.943Z,6.60
2023-05-10T23:32:23.452Z,9.10
2023-05-10T23:37:26.275Z,7.20
2023-05-10T23:42:29.083Z,7.20
2023-05-10T23:47:31.942Z,9.80
2023-05-10T23:52:34.797Z,9.40
2023-05-10T23:57:37.979Z,6.60
